Time;durP1;ratioP1;P1;durP2;ratioP2;P2;SDS_P1;SDS_P2;PMS_P1;PMS_P2;Temp;Humidity;BMP_temperature;BMP_pressure;BME280_temperature;BME280_humidity;BME280_pressure;Samples;Min_cycle;Max_cycle;Signal;HPM_P1;HPM_P2
2023/07/20 00:02:11;;;;;;;5.20;2.30;;;;;;;18.52;60.67;99699.66;1731453;83;21018;-65
2023/07/20 00:04:40;;;;;;;7.90;2.70;;;;;;;18.54;60.69;99695.50;1731268;83;21045;-67
2023/07/20 00:07:11;;;;;;;5.15;2.27;;;;;;;18.54;60.71;99694.12;1702595;83;21446;-64
2023/07/20 00:09:40;;;;;;;7.55;2.20;;;;;;;18.48;60.91;99690.19;1731390;83;21081;-65
2023/07/20 00:12:10;;;;;;;6.65;2.40;;;;;;;18.42;61.12;99689.88;1702350;83;21106;-64
2023/07/20 00:14:40;;;;;;;6.22;2.10;;;;;;;18.39;61.27;99691.23;1731139;83;21046;-64
2023/07/20 00:17:09;;;;;;;5.87;2.37;;;;;;;18.36;61.39;99689.00;1731113;83;21050;-64
2023/07/20 00:19:38;;;;;;;4.75;2.20;;;;;;;18.36;61.55;99694.55;1702765;83;21004;-63
2023/07/20 00:22:09;;;;;;;5.78;2.10;;;;;;;18.39;61.56;99689.85;1702834;83;21049;-64
2023/07/20 00:24:38;;;;;;;3.30;2.17;;;;;;;18.37;61.66;99689.28;1702459;83;21434;-67
2023/07/20 00:27:08;;;;;;;4.28;1.98;;;;;;;18.36;61.58;99694.55;1731424;83;21031;-63
2023/07/20 00:29:38;;;;;;;3.58;1.90;;;;;;;18.37;61.49;99692.06;1731101;83;21439;-64
2023/07/20 00:32:08;;;;;;;5.50;2.00;;;;;;;18.37;61.44;99692.89;1731137;83;21496;-65
2023/07/20 00:34:37;;;;;;;3.65;2.10;;;;;;;18.38;61.49;99690.95;1703038;83;21516;-64
2023/07/20 00:37:06;;;;;;;5.30;2.25;;;;;;;18.35;61.85;99688.16;1731129;83;21077;-64
2023/07/20 00:39:36;;;;;;;3.58;1.87;;;;;;;18.34;61.98;99692.59;1731306;83;21014;-65
2023/07/20 00:42:07;;;;;;;5.37;2.02;;;;;;;18.31;61.98;99693.12;1731102;83;21018;-64
2023/07/20 00:44:37;;;;;;;3.45;1.80;;;;;;;18.28;62.04;99688.94;1731226;83;21022;-71
2023/07/20 00:47:09;;;;;;;3.75;1.98;;;;;;;18.26;62.20;99697.24;1731157;83;21014;-64
2023/07/20 00:49:39;;;;;;;3.98;1.77;;;;;;;18.25;62.40;99695.57;1731353;83;21482;-63
2023/07/20 00:52:09;;;;;;;3.02;1.80;;;;;;;18.23;62.48;99697.22;1702802;83;21042;-64
2023/07/20 00:54:38;;;;;;;5.15;2.35;;;;;;;18.21;62.58;99698.59;1731274;83;21037;-64
2023/07/20 00:57:08;;;;;;;5.00;2.22;;;;;;;18.20;62.62;99694.95;1723994;82;21028;-63
2023/07/20 00:59:38;;;;;;;6.85;1.92;;;;;;;18.22;62.71;99694.72;1721173;83;21442;-64
2023/07/20 01:02:07;;;;;;;8.08;2.55;;;;;;;18.23;62.68;99695.00;1721293;83;21034;-62
2023/07/20 01:04:37;;;;;;;4.55;2.12;;;;;;;18.20;62.68;99689.95;1721199;83;21091;-63
2023/07/20 01:07:12;;;;;;;3.17;1.70;;;;;;;18.17;62.71;99696.03;1721182;83;21047;-62
2023/07/20 01:10:08;;;;;;;8.03;2.15;;;;;;;18.17;62.78;99694.64;1721308;82;21018;-63
2023/07/20 01:12:47;;;;;;;3.00;2.17;;;;;;;18.17;62.83;99691.87;1720944;83;21065;-63
2023/07/20 01:15:19;;;;;;;3.02;2.30;;;;;;;18.16;62.97;99685.48;1721064;83;21101;-63
2023/07/20 01:17:48;;;;;;;4.83;2.22;;;;;;;18.18;62.99;99688.83;1721223;83;21003;-63
2023/07/20 01:20:19;;;;;;;4.28;2.20;;;;;;;18.19;63.01;99691.89;1721093;83;21046;-63
2023/07/20 01:23:13;;;;;;;7.00;2.25;;;;;;;18.20;63.03;99685.80;1721004;83;21061;-64
2023/07/20 01:26:00;;;;;;;4.15;2.15;;;;;;;18.18;63.11;99689.38;1721133;83;21015;-63
2023/07/20 01:29:02;;;;;;;3.15;1.95;;;;;;;18.14;63.24;99686.86;1720905;83;21196;-62
2023/07/20 01:31:33;;;;;;;4.65;1.90;;;;;;;18.09;63.41;99690.97;1721185;83;21069;-63
2023/07/20 01:34:03;;;;;;;4.28;2.25;;;;;;;18.00;63.73;99683.14;1721035;83;20979;-63
2023/07/20 01:36:36;;;;;;;4.03;2.02;;;;;;;17.99;63.90;99681.47;1681562;83;21415;-62
2023/07/20 01:39:05;;;;;;;5.12;2.47;;;;;;;17.99;64.04;99687.56;1721126;83;21046;-62
2023/07/20 01:41:34;;;;;;;4.58;2.08;;;;;;;17.99;64.09;99688.40;1721083;83;21512;-63
2023/07/20 01:44:05;;;;;;;6.15;2.02;;;;;;;17.98;64.16;99693.66;1721002;83;21089;-63
2023/07/20 01:46:34;;;;;;;5.05;2.10;;;;;;;17.96;64.23;99696.41;1721125;83;21484;-62
2023/07/20 01:49:04;;;;;;;5.12;1.92;;;;;;;17.93;64.30;99694.16;1702918;83;21011;-63
2023/07/20 01:51:33;;;;;;;3.47;1.90;;;;;;;17.89;64.42;99688.30;1721136;83;21038;-65
2023/07/20 01:54:04;;;;;;;9.60;2.20;;;;;;;17.84;64.59;99689.64;1702723;83;21046;-64
2023/07/20 01:56:34;;;;;;;4.22;1.85;;;;;;;17.81;64.85;99686.56;1702691;83;21431;-63
2023/07/20 01:59:03;;;;;;;3.45;2.05;;;;;;;17.78;65.08;99692.08;1733628;83;21079;-65
2023/07/20 02:01:34;;;;;;;3.98;1.98;;;;;;;17.80;65.19;99680.73;1734719;82;21075;-63
2023/07/20 02:04:04;;;;;;;3.42;2.00;;;;;;;17.79;65.30;99690.14;1734753;82;21067;-64
2023/07/20 02:06:35;;;;;;;4.42;2.10;;;;;;;17.77;65.55;99693.73;1710682;83;21020;-64
2023/07/20 02:09:04;;;;;;;8.88;2.02;;;;;;;17.75;65.68;99685.67;1734893;82;21040;-64
2023/07/20 02:11:33;;;;;;;5.60;2.20;;;;;;;17.75;65.71;99688.45;1734743;82;21048;-63
2023/07/20 02:14:03;;;;;;;7.40;2.17;;;;;;;17.74;65.76;99688.16;1709620;83;21047;-64
2023/07/20 02:16:33;;;;;;;5.25;1.75;;;;;;;17.74;65.85;99691.77;1734909;82;21071;-65
2023/07/20 02:19:02;;;;;;;3.77;1.95;;;;;;;17.75;65.84;99695.38;1734754;82;21052;-63
2023/07/20 02:21:33;;;;;;;3.92;2.00;;;;;;;17.74;65.89;99695.09;1734761;82;21008;-64
2023/07/20 02:24:03;;;;;;;4.22;2.25;;;;;;;17.74;65.99;99689.55;1710297;83;21024;-64
2023/07/20 02:26:33;;;;;;;5.53;2.05;;;;;;;17.73;66.08;99692.03;1709969;83;21020;-64
2023/07/20 02:29:04;;;;;;;4.08;2.10;;;;;;;17.72;66.16;99697.28;1734920;82;21004;-63
2023/07/20 02:31:33;;;;;;;5.75;1.98;;;;;;;17.70;66.32;99694.78;1734682;82;21479;-63
2023/07/20 02:34:03;;;;;;;3.98;2.02;;;;;;;17.69;66.53;99692.27;1734754;83;21518;-63
2023/07/20 02:36:35;;;;;;;5.53;2.42;;;;;;;17.66;66.72;99693.63;1735014;83;21031;-63
2023/07/20 02:39:04;;;;;;;4.72;2.40;;;;;;;17.59;66.92;99695.73;1734725;82;21044;-62
2023/07/20 02:41:34;;;;;;;5.62;2.40;;;;;;;17.58;67.17;99697.38;1734835;83;21024;-65
2023/07/20 02:44:03;;;;;;;5.03;2.35;;;;;;;17.60;67.30;99692.42;1710454;83;21063;-63
2023/07/20 02:46:35;;;;;;;4.35;2.05;;;;;;;17.63;67.33;99693.28;1710732;83;21028;-64
2023/07/20 02:49:04;;;;;;;6.42;2.35;;;;;;;17.65;67.31;99691.92;1734677;82;21036;-65
2023/07/20 02:51:34;;;;;;;6.37;2.22;;;;;;;17.69;67.31;99692.27;1710887;83;21024;-64
2023/07/20 02:54:04;;;;;;;4.37;2.37;;;;;;;17.70;67.29;99692.55;1734912;82;21064;-64
2023/07/20 02:56:33;;;;;;;5.83;1.98;;;;;;;17.70;67.44;99688.40;1734802;83;20996;-64
2023/07/20 02:59:06;;;;;;;6.53;2.25;;;;;;;17.71;67.44;99690.91;1723852;82;21042;-62
2023/07/20 03:01:35;;;;;;;8.25;2.20;;;;;;;17.71;67.55;99692.84;1703179;83;21058;-64
2023/07/20 03:04:07;;;;;;;8.53;3.15;;;;;;;17.69;67.67;99690.88;1721184;83;21138;-65
2023/07/20 03:06:38;;;;;;;6.80;2.27;;;;;;;17.70;67.81;99685.08;1720889;83;21015;-67
2023/07/20 03:09:09;;;;;;;6.15;2.37;;;;;;;17.71;67.78;99694.23;1720987;83;21002;-63
2023/07/20 03:11:39;;;;;;;11.75;2.72;;;;;;;17.71;67.85;99695.06;1643688;87;21110;-63
2023/07/20 03:14:10;;;;;;;5.25;2.70;;;;;;;17.72;67.88;99691.20;1643868;87;21138;-63
2023/07/20 03:16:40;;;;;;;7.37;2.50;;;;;;;17.76;67.97;99691.51;1643668;87;21087;-63
2023/07/20 03:19:09;;;;;;;12.10;2.92;;;;;;;17.79;68.14;99690.14;1643471;87;21499;-63
2023/07/20 03:21:40;;;;;;;8.40;2.92;;;;;;;17.83;68.19;99689.36;1622139;87;21083;-63
2023/07/20 03:24:10;;;;;;;5.75;2.50;;;;;;;17.85;68.33;99691.31;1643380;87;21204;-62
2023/07/20 03:26:41;;;;;;;6.72;2.30;;;;;;;17.86;68.41;99681.91;1643582;86;21495;-63
2023/07/20 03:29:10;;;;;;;8.33;2.72;;;;;;;17.91;68.59;99683.89;1564873;87;21110;-62
2023/07/20 03:31:40;;;;;;;4.35;2.30;;;;;;;17.97;68.42;99682.28;1643505;87;21083;-64
2023/07/20 03:34:10;;;;;;;7.50;2.80;;;;;;;18.04;68.27;99680.67;1584264;90;21107;-63
2023/07/20 03:36:41;;;;;;;6.55;2.40;;;;;;;18.11;68.21;99684.06;1584677;90;21058;-64
2023/07/20 03:39:13;;;;;;;6.50;2.60;;;;;;;18.20;68.05;99676.09;1570843;90;21039;-63
2023/07/20 03:41:44;;;;;;;8.18;2.52;;;;;;;18.24;67.96;99680.87;1591302;90;21526;-63
2023/07/20 03:44:14;;;;;;;4.85;2.60;;;;;;;18.29;67.86;99682.30;1571041;90;21497;-64
2023/07/20 03:46:43;;;;;;;10.70;2.70;;;;;;;18.33;67.87;99677.89;1610740;86;21043;-64
2023/07/20 03:49:12;;;;;;;5.83;2.92;;;;;;;18.39;68.04;99687.08;1648177;86;21046;-63
2023/07/20 03:51:43;;;;;;;6.45;2.80;;;;;;;18.45;68.01;99689.34;1670525;86;21905;-65
2023/07/20 03:54:14;;;;;;;7.60;2.92;;;;;;;18.51;67.60;99682.17;1670381;86;21038;-64
2023/07/20 03:56:44;;;;;;;11.03;2.90;;;;;;;18.61;66.77;99690.59;1670150;86;21130;-64
2023/07/20 03:59:13;;;;;;;6.83;2.83;;;;;;;18.72;66.45;99685.94;1729556;82;21076;-63
2023/07/20 04:01:42;;;;;;;9.13;2.75;;;;;;;18.79;66.25;99691.25;1755763;82;21011;-64
2023/07/20 04:04:12;;;;;;;9.48;2.85;;;;;;;18.83;66.29;99686.83;1755974;82;21060;-64
2023/07/20 04:06:47;;;;;;;10.45;2.87;;;;;;;18.88;66.27;99685.50;1755911;82;21076;-63
2023/07/20 04:09:14;;;;;;;9.33;3.70;;;;;;;18.95;65.90;99684.70;1729049;82;21027;-64
2023/07/20 04:11:44;;;;;;;13.22;3.90;;;;;;;19.01;65.33;99683.63;1660740;86;21111;-64
2023/07/20 04:14:13;;;;;;;17.00;4.10;;;;;;;19.09;64.72;99680.33;1660752;86;21055;-64
2023/07/20 04:16:42;;;;;;;10.63;3.95;;;;;;;19.17;64.61;99685.91;1660686;86;21096;-64
2023/07/20 04:19:11;;;;;;;16.90;4.65;;;;;;;19.26;64.54;99682.89;1638558;86;21048;-64
2023/07/20 04:21:41;;;;;;;22.55;4.40;;;;;;;19.30;64.51;99680.69;1660954;86;21166;-63
2023/07/20 04:24:11;;;;;;;17.10;4.25;;;;;;;19.40;63.95;99677.66;1660867;86;21141;-65
2023/07/20 04:26:41;;;;;;;13.18;3.80;;;;;;;19.49;63.59;99680.19;1638986;86;21043;-64
2023/07/20 04:29:12;;;;;;;17.40;4.25;;;;;;;19.58;63.28;99679.44;1681615;82;21031;-64
2023/07/20 04:31:43;;;;;;;13.08;4.05;;;;;;;19.67;62.81;99671.95;1756035;82;21015;-66
2023/07/20 04:34:13;;;;;;;13.28;4.15;;;;;;;19.77;62.32;99672.80;1756018;82;21011;-62
2023/07/20 04:36:44;;;;;;;8.73;3.55;;;;;;;19.86;61.74;99678.09;1728695;82;21003;-64
2023/07/20 04:39:15;;;;;;;9.68;4.00;;;;;;;19.93;61.16;99674.48;1756018;82;21059;-65
2023/07/20 04:41:47;;;;;;;10.18;3.52;;;;;;;20.01;60.48;99675.88;1728570;82;21059;-65
2023/07/20 04:44:18;;;;;;;9.68;4.10;;;;;;;20.09;59.81;99677.27;1756051;82;21054;-64
2023/07/20 04:46:48;;;;;;;8.38;3.83;;;;;;;20.17;59.08;99676.19;1756102;82;21031;-64
2023/07/20 04:49:17;;;;;;;13.93;4.00;;;;;;;20.25;58.55;99678.41;1755973;82;21027;-65
2023/07/20 04:51:46;;;;;;;9.43;3.20;;;;;;;20.33;58.23;99685.36;1755872;82;21111;-64
2023/07/20 04:54:18;;;;;;;7.05;3.25;;;;;;;20.41;57.94;99682.59;1755682;82;21027;-64
2023/07/20 04:56:48;;;;;;;13.32;3.20;;;;;;;20.49;57.71;99683.42;1728450;82;21094;-62
2023/07/20 04:59:21;;;;;;;11.22;3.00;;;;;;;20.55;57.33;99687.87;1728197;82;21514;-64
2023/07/20 05:01:52;;;;;;;11.33;3.00;;;;;;;20.62;57.28;99683.40;1734683;82;21079;-64
2023/07/20 05:04:23;;;;;;;8.75;2.60;;;;;;;20.69;57.05;99680.59;1734741;83;21032;-63
2023/07/20 05:06:52;;;;;;;10.38;3.17;;;;;;;20.80;56.50;99678.63;1734680;83;21537;-65
2023/07/20 05:09:22;;;;;;;5.47;2.50;;;;;;;20.95;56.21;99681.39;1734790;82;21044;-63
2023/07/20 05:11:52;;;;;;;5.17;2.58;;;;;;;21.16;55.22;99672.40;1734825;83;21468;-65
2023/07/20 05:14:23;;;;;;;5.70;2.10;;;;;;;21.44;54.22;99673.13;1734743;82;21016;-64
2023/07/20 05:16:54;;;;;;;5.25;2.10;;;;;;;21.74;53.39;99677.71;1709972;83;21546;-65
2023/07/20 05:19:25;;;;;;;10.93;2.85;;;;;;;22.10;52.11;99683.06;1734677;82;21035;-65
2023/07/20 05:21:55;;;;;;;9.20;3.00;;;;;;;22.42;50.96;99674.98;1687484;83;21476;-63
2023/07/20 05:24:26;;;;;;;9.90;2.15;;;;;;;22.75;50.02;99672.42;1710017;83;21154;-65
2023/07/20 05:26:56;;;;;;;20.68;3.47;;;;;;;23.04;49.32;99659.30;1734737;83;21004;-65
2023/07/20 05:29:26;;;;;;;12.05;3.27;;;;;;;23.33;48.33;99654.17;1734752;82;21079;-64
2023/07/20 05:31:56;;;;;;;9.33;2.52;;;;;;;23.56;48.06;99653.34;1735016;82;21440;-65
2023/07/20 05:34:26;;;;;;;11.12;2.80;;;;;;;23.88;47.43;99653.15;1734826;83;21526;-65
2023/07/20 05:36:55;;;;;;;12.18;2.95;;;;;;;24.19;46.49;99644.54;1734857;82;21028;-63
2023/07/20 05:39:25;;;;;;;10.53;2.70;;;;;;;24.47;45.48;99637.07;1710163;83;21060;-67
2023/07/20 05:41:55;;;;;;;6.33;2.70;;;;;;;24.76;44.53;99647.20;1734737;83;21016;-66
2023/07/20 05:44:25;;;;;;;10.38;2.37;;;;;;;24.99;43.36;99649.58;1734944;83;21008;-65
2023/07/20 05:46:55;;;;;;;8.20;2.55;;;;;;;25.21;42.95;99649.67;1734621;82;21091;-65
2023/07/20 05:49:28;;;;;;;9.35;2.60;;;;;;;25.42;42.32;99645.31;1734857;83;21005;-64
2023/07/20 05:51:57;;;;;;;9.13;2.83;;;;;;;25.61;41.94;99640.95;1709651;83;21517;-66
2023/07/20 05:54:27;;;;;;;6.53;2.50;;;;;;;25.83;40.23;99638.78;1649117;86;21065;-65
2023/07/20 05:56:55;;;;;;;11.15;3.05;;;;;;;26.00;39.79;99640.33;1648666;87;21069;-65
2023/07/20 05:59:25;;;;;;;20.08;3.45;;;;;;;26.13;39.99;99635.25;1626590;87;21140;-65
2023/07/20 06:01:54;;;;;;;17.48;3.30;;;;;;;26.41;38.92;99642.98;1648150;87;21509;-66
2023/07/20 06:04:23;;;;;;;4.90;2.05;;;;;;;26.58;37.59;99650.67;1648456;87;21053;-67
2023/07/20 06:06:52;;;;;;;7.28;2.47;;;;;;;26.58;37.59;99650.67;1648030;86;21069;-66
2023/07/20 06:09:22;;;;;;;10.08;3.05;;;;;;;26.63;37.61;99652.52;1648222;86;21105;-65
2023/07/20 06:11:52;;;;;;;4.60;2.10;;;;;;;26.87;37.38;99650.19;1664084;83;21624;-65
2023/07/20 06:14:22;;;;;;;7.00;2.30;;;;;;;26.87;37.38;99650.19;1731557;83;21051;-67
2023/07/20 06:16:52;;;;;;;11.28;3.40;;;;;;;27.02;37.52;99651.19;1731309;83;21041;-65
2023/07/20 06:19:22;;;;;;;7.97;2.60;;;;;;;27.15;37.51;99655.86;1726525;83;21059;-64
2023/07/20 06:21:51;;;;;;;7.58;2.92;;;;;;;27.30;36.92;99649.53;1726253;82;21098;-65
2023/07/20 06:24:22;;;;;;;6.90;2.58;;;;;;;27.47;36.69;99649.02;1726363;83;21564;-64
2023/07/20 06:26:53;;;;;;;5.75;2.37;;;;;;;27.62;36.52;99645.52;1726139;83;21026;-65
2023/07/20 06:29:22;;;;;;;6.00;2.37;;;;;;;27.71;36.48;99644.36;1726231;83;21058;-66
2023/07/20 06:31:53;;;;;;;5.58;2.42;;;;;;;27.85;36.63;99637.73;1731775;83;21074;-66
2023/07/20 06:34:26;;;;;;;10.50;2.83;;;;;;;28.03;35.82;99634.62;1631410;87;21150;-66
2023/07/20 06:36:56;;;;;;;7.97;2.50;;;;;;;28.15;35.23;99638.75;1631134;88;21103;-64
2023/07/20 06:39:24;;;;;;;6.08;2.58;;;;;;;28.26;35.01;99631.05;1631409;88;21075;-66
2023/07/20 06:41:56;;;;;;;6.12;2.37;;;;;;;28.39;35.05;99634.84;1631519;88;21059;-66
2023/07/20 06:44:26;;;;;;;24.67;5.85;;;;;;;28.55;34.77;99639.36;1631561;88;21122;-66
2023/07/20 06:46:55;;;;;;;9.78;3.10;;;;;;;28.69;34.08;99640.84;1631241;86;21558;-67
2023/07/20 06:49:26;;;;;;;5.37;1.80;;;;;;;28.86;33.41;99644.78;1631707;88;21091;-66
2023/07/20 06:51:55;;;;;;;4.45;1.57;;;;;;;28.97;32.62;99640.42;1631575;88;21559;-64
2023/07/20 06:54:24;;;;;;;4.90;1.50;;;;;;;29.07;32.15;99635.81;1631571;88;21479;-66
2023/07/20 06:56:53;;;;;;;3.27;1.70;;;;;;;29.16;31.75;99642.23;1631433;88;21112;-66
2023/07/20 06:59:26;;;;;;;5.25;1.90;;;;;;;29.23;31.35;99642.53;1692081;82;21083;-66
2023/07/20 07:01:55;;;;;;;4.62;1.70;;;;;;;29.29;31.26;99644.60;1718421;83;21439;-65
2023/07/20 07:04:25;;;;;;;4.40;1.92;;;;;;;29.35;30.64;99637.59;1692005;83;21019;-65
2023/07/20 07:06:54;;;;;;;5.45;1.92;;;;;;;29.41;30.67;99645.28;1718275;83;21481;-66
2023/07/20 07:09:24;;;;;;;3.58;1.72;;;;;;;29.48;30.28;99641.36;1718357;83;21014;-65
2023/07/20 07:11:53;;;;;;;4.08;1.85;;;;;;;29.55;30.05;99640.23;1691946;83;20995;-64
2023/07/20 07:14:23;;;;;;;4.17;1.72;;;;;;;29.57;29.87;99635.89;1718319;83;21520;-67
2023/07/20 07:16:55;;;;;;;13.72;6.40;;;;;;;29.61;29.97;99638.86;1718182;83;21040;-67
2023/07/20 07:19:28;;;;;;;7.22;2.00;;;;;;;29.63;29.64;99647.81;1718298;83;21031;-65
2023/07/20 07:21:57;;;;;;;4.15;2.10;;;;;;;29.63;30.08;99643.58;1718086;83;21463;-66
2023/07/20 07:24:33;;;;;;;8.20;1.72;;;;;;;29.57;30.30;99643.54;1718333;83;21517;-65
2023/07/20 07:26:59;;;;;;;7.60;1.92;;;;;;;29.47;30.17;99648.17;1718054;83;21054;-65
2023/07/20 07:29:29;;;;;;;5.72;1.80;;;;;;;29.47;30.12;99644.77;1610221;88;21104;-66
2023/07/20 07:31:58;;;;;;;6.25;1.65;;;;;;;29.54;29.96;99647.88;1631809;88;21062;-66
2023/07/20 07:34:28;;;;;;;3.65;1.60;;;;;;;29.70;30.21;99650.09;1631670;88;21061;-66
2023/07/20 07:36:58;;;;;;;4.20;1.98;;;;;;;29.83;29.67;99645.58;1631747;88;21053;-66
2023/07/20 07:39:29;;;;;;;2.87;2.02;;;;;;;29.95;29.47;99639.20;1610336;88;21076;-64
2023/07/20 07:42:00;;;;;;;4.12;2.10;;;;;;;30.13;29.15;99640.73;1631914;88;21117;-65
2023/07/20 07:44:30;;;;;;;3.95;1.85;;;;;;;30.38;28.00;99645.05;1631810;88;21052;-65
2023/07/20 07:46:59;;;;;;;2.30;1.52;;;;;;;30.60;27.56;99637.64;1652673;83;21054;-68
2023/07/20 07:49:29;;;;;;;4.47;2.37;;;;;;;30.77;27.12;99634.61;1718418;83;21050;-66
2023/07/20 07:51:58;;;;;;;5.80;1.80;;;;;;;30.86;27.37;99631.08;1718486;83;21054;-67
2023/07/20 07:54:27;;;;;;;8.10;2.20;;;;;;;30.97;26.78;99637.11;1718197;83;21530;-65
2023/07/20 07:56:57;;;;;;;7.12;2.12;;;;;;;30.99;26.97;99628.27;1718373;83;21022;-66
2023/07/20 07:59:27;;;;;;;4.45;1.90;;;;;;;31.05;26.99;99614.94;1719222;83;21073;-66
2023/07/20 08:01:56;;;;;;;7.33;2.20;;;;;;;31.19;27.04;99621.69;1721174;83;21010;-67
2023/07/20 08:04:25;;;;;;;6.95;2.33;;;;;;;31.35;27.07;99625.48;1715965;83;21055;-70
2023/07/20 08:06:54;;;;;;;7.72;2.60;;;;;;;31.41;27.07;99626.06;1660868;85;22207;-72
2023/07/20 08:09:24;;;;;;;6.45;2.37;;;;;;;31.46;27.15;99620.98;1714450;84;21456;-68
2023/07/20 08:11:54;;;;;;;7.80;2.40;;;;;;;31.57;27.22;99619.91;1686171;84;21109;-68
2023/07/20 08:14:24;;;;;;;6.30;2.20;;;;;;;31.68;26.97;99615.39;1710990;83;21455;-68
2023/07/20 08:16:54;;;;;;;7.10;2.67;;;;;;;31.80;26.82;99622.47;1717295;83;21045;-69
2023/07/20 08:19:23;;;;;;;9.00;2.55;;;;;;;31.83;26.95;99620.34;1704606;84;21458;-68
2023/07/20 08:21:53;;;;;;;8.78;4.40;;;;;;;31.98;27.21;99616.54;1704461;83;21470;-68
2023/07/20 08:24:21;;;;;;;6.55;3.37;;;;;;;32.06;27.16;99618.39;1712799;83;21476;-68
2023/07/20 08:26:50;;;;;;;4.60;2.30;;;;;;;32.20;26.94;99615.14;1704211;83;20994;-65
2023/07/20 08:29:20;;;;;;;9.13;3.10;;;;;;;32.13;27.25;99618.60;1686572;84;21022;-70
2023/07/20 08:31:49;;;;;;;8.93;2.75;;;;;;;32.18;27.21;99617.52;1704332;84;21438;-67
2023/07/20 08:34:20;;;;;;;5.17;2.12;;;;;;;32.17;27.12;99620.95;1704222;84;21148;-69
2023/07/20 08:36:51;;;;;;;8.98;3.00;;;;;;;32.05;27.65;99613.91;1703057;84;21065;-71
2023/07/20 08:39:22;;;;;;;9.95;2.47;;;;;;;31.99;27.65;99609.69;1705556;83;21046;-69
2023/07/20 08:41:56;;;;;;;2.72;1.85;;;;;;;32.12;27.56;99605.02;1669515;86;21055;-70
2023/07/20 08:44:23;;;;;;;7.30;2.90;;;;;;;32.33;27.13;99609.08;1669389;86;21185;-70
2023/07/20 08:46:53;;;;;;;8.03;2.60;;;;;;;32.42;26.53;99594.14;1729964;83;21467;-72
2023/07/20 08:49:24;;;;;;;5.30;2.30;;;;;;;32.21;27.00;99597.77;1724904;83;21074;-69
2023/07/20 08:51:54;;;;;;;6.15;2.45;;;;;;;32.08;27.10;99600.44;1669333;86;21063;-71
2023/07/20 08:54:23;;;;;;;4.78;2.20;;;;;;;32.02;27.14;99591.96;1669413;86;21070;-69
2023/07/20 08:56:52;;;;;;;6.35;2.20;;;;;;;32.09;27.30;99590.75;1669716;86;21067;-69
2023/07/20 08:59:22;;;;;;;7.85;2.17;;;;;;;32.38;26.83;99586.13;1724716;83;21086;-69
2023/07/20 09:01:54;;;;;;;15.60;6.10;;;;;;;32.59;26.25;99590.76;1699714;83;21086;-74
2023/07/20 09:04:23;;;;;;;8.50;5.17;;;;;;;32.56;25.72;99580.14;1669363;86;21134;-62
2023/07/20 09:06:52;;;;;;;6.72;2.15;;;;;;;32.51;26.27;99580.38;1620241;86;21221;-71
2023/07/20 09:09:23;;;;;;;4.40;2.10;;;;;;;32.54;26.62;99581.10;1669773;86;21063;-70
2023/07/20 09:11:52;;;;;;;6.70;1.92;;;;;;;32.55;25.56;99581.33;1729893;83;21525;-70
2023/07/20 09:14:23;;;;;;;4.75;1.92;;;;;;;32.50;25.44;99574.48;1668534;86;21116;-68
2023/07/20 09:16:55;;;;;;;5.85;2.35;;;;;;;32.28;25.73;99573.08;1700807;81;21018;-68
2023/07/20 09:19:25;;;;;;;6.67;2.30;;;;;;;32.04;26.38;99574.00;1730291;83;21069;-69
2023/07/20 09:21:54;;;;;;;8.00;2.05;;;;;;;31.79;26.73;99569.83;1730338;83;21129;-70
2023/07/20 09:24:23;;;;;;;5.90;2.40;;;;;;;31.67;27.19;99563.34;1717122;82;21312;-71
2023/07/20 09:26:52;;;;;;;5.17;2.30;;;;;;;31.66;27.53;99567.36;1717232;83;21094;-69
2023/07/20 09:29:24;;;;;;;4.40;2.17;;;;;;;31.67;27.37;99567.00;1717101;83;21082;-67
2023/07/20 09:32:08;;;;;;;3.90;1.75;;;;;;;31.64;27.16;99579.05;1729995;83;21077;-69
2023/07/20 09:34:39;;;;;;;5.12;2.08;;;;;;;31.43;27.03;99572.14;1714417;82;21059;-69
2023/07/20 09:37:09;;;;;;;5.33;2.02;;;;;;;31.30;26.96;99575.36;1701802;83;21017;-68
2023/07/20 09:39:45;;;;;;;5.80;2.47;;;;;;;31.12;27.31;99573.31;1717004;83;21069;-71
2023/07/20 09:42:17;;;;;;;4.55;2.10;;;;;;;30.98;27.92;99572.27;1730073;81;21037;-70
2023/07/20 09:44:49;;;;;;;4.17;2.08;;;;;;;30.97;27.99;99577.69;1717487;82;21034;-68
2023/07/20 09:47:24;;;;;;;3.37;1.80;;;;;;;30.83;27.93;99572.97;1691353;83;21038;-69
2023/07/20 09:50:00;;;;;;;14.65;3.22;;;;;;;30.76;28.03;99567.91;1729487;82;21069;-69
2023/07/20 09:52:32;;;;;;;4.72;2.20;;;;;;;30.84;28.20;99567.55;1717085;83;21030;-68
2023/07/20 09:55:04;;;;;;;4.97;2.17;;;;;;;30.88;27.98;99571.32;1729888;81;21034;-67
2023/07/20 09:57:40;;;;;;;5.12;2.10;;;;;;;30.78;28.03;99558.47;1730004;83;21047;-67
2023/07/20 10:00:12;;;;;;;7.25;2.40;;;;;;;30.73;28.32;99562.12;1706822;82;21116;-67
2023/07/20 10:02:43;;;;;;;4.37;2.33;;;;;;;30.61;28.08;99560.70;1740746;82;21076;-67
2023/07/20 10:05:14;;;;;;;7.22;2.55;;;;;;;30.50;28.28;99557.45;1740456;82;21530;-68
2023/07/20 10:07:51;;;;;;;4.80;1.90;;;;;;;30.49;28.50;99555.20;1733544;82;21597;-67
2023/07/20 10:10:21;;;;;;;5.17;2.20;;;;;;;30.47;27.88;99558.97;1721620;83;21103;-69
2023/07/20 10:12:52;;;;;;;3.90;1.87;;;;;;;30.38;28.13;99556.02;1725509;83;21076;-68
2023/07/20 10:15:25;;;;;;;5.25;2.12;;;;;;;30.38;27.89;99555.42;1697691;83;21062;-68
2023/07/20 10:18:21;;;;;;;3.75;1.92;;;;;;;30.35;27.99;99553.89;1725733;83;21034;-70
2023/07/20 10:20:50;;;;;;;3.55;1.90;;;;;;;30.32;28.15;99541.28;1725630;83;21139;-67
2023/07/20 10:23:23;;;;;;;4.72;1.75;;;;;;;30.14;28.30;99539.83;1725736;83;21106;-68
2023/07/20 10:25:52;;;;;;;3.27;1.72;;;;;;;30.02;28.94;99536.37;1650527;83;21098;-70
2023/07/20 10:28:23;;;;;;;5.65;2.12;;;;;;;29.96;28.91;99539.16;1725851;83;21111;-68
2023/07/20 10:30:51;;;;;;;4.90;2.15;;;;;;;29.90;29.35;99534.28;1725801;83;21174;-69
2023/07/20 10:33:22;;;;;;;4.37;2.10;;;;;;;29.88;29.05;99536.63;1725644;83;21478;-64
2023/07/20 10:35:55;;;;;;;5.85;2.00;;;;;;;29.81;29.04;99533.54;1698818;83;21185;-66
2023/07/20 10:38:42;;;;;;;6.20;2.20;;;;;;;29.74;29.15;99535.27;1725781;83;21070;-66
2023/07/20 10:41:28;;;;;;;2.75;1.82;;;;;;;29.70;29.58;99528.67;1698950;83;21082;-67
2023/07/20 10:44:05;;;;;;;4.35;2.37;;;;;;;29.63;29.11;99530.05;1725379;83;21086;-66
2023/07/20 10:46:44;;;;;;;;;;;;;;;29.57;29.01;99530.03;1728324;83;21098;-66
2023/07/20 10:49:26;;;;;;;4.35;2.33;;;;;;;29.58;29.20;99516.73;1638615;87;20246;-67
2023/07/20 10:51:49;;;;;;;3.67;2.25;;;;;;;29.59;29.20;99517.80;1636249;87;21506;-67
2023/07/20 10:54:25;;;;;;;5.30;2.58;;;;;;;29.61;28.92;99521.11;1622439;88;21095;-67
2023/07/20 10:56:56;;;;;;;6.05;2.55;;;;;;;29.63;29.06;99515.11;1622323;88;21594;-69
2023/07/20 10:59:33;;;;;;;7.30;2.50;;;;;;;29.68;29.04;99509.25;1622636;88;21051;-66
2023/07/20 11:02:08;;;;;;;4.60;1.90;;;;;;;29.70;29.17;99506.08;1622198;88;21059;-67
2023/07/20 11:04:42;;;;;;;3.90;2.08;;;;;;;29.72;29.30;99500.32;1622464;88;21166;-66
2023/07/20 11:07:17;;;;;;;6.37;2.08;;;;;;;29.74;28.87;99499.98;1658272;84;21059;-65
2023/07/20 11:09:46;;;;;;;2.98;1.77;;;;;;;29.71;29.08;99504.91;1705317;84;21064;-65
2023/07/20 11:12:18;;;;;;;5.40;2.20;;;;;;;29.68;28.93;99495.12;1705549;84;21044;-67
2023/07/20 11:14:56;;;;;;;5.55;2.15;;;;;;;29.61;29.08;99497.11;1723016;83;21056;-69
2023/07/20 11:17:30;;;;;;;3.70;2.12;;;;;;;29.57;28.92;99491.09;1710724;83;21460;-67
2023/07/20 11:20:01;;;;;;;6.25;2.08;;;;;;;29.52;29.38;99490.72;1734650;82;21127;-67
2023/07/20 11:22:31;;;;;;;5.70;2.20;;;;;;;29.55;29.65;99498.49;1710485;83;21103;-67
2023/07/20 11:25:01;;;;;;;6.87;2.33;;;;;;;29.57;29.51;99494.73;1734685;83;21263;-65
2023/07/20 11:27:31;;;;;;;4.92;2.60;;;;;;;29.57;29.61;99483.44;1734755;82;21035;-66
2023/07/20 11:30:01;;;;;;;5.70;2.90;;;;;;;29.62;29.77;99483.81;1734554;83;21068;-69
2023/07/20 11:32:31;;;;;;;7.62;2.20;;;;;;;29.65;29.86;99484.53;1734691;83;21444;-66
2023/07/20 11:35:00;;;;;;;5.10;2.25;;;;;;;29.65;29.60;99482.53;1734463;83;21534;-65
2023/07/20 11:37:29;;;;;;;4.42;2.00;;;;;;;29.56;29.59;99472.50;1709690;83;21036;-66
2023/07/20 11:39:59;;;;;;;3.83;2.10;;;;;;;29.50;29.77;99466.83;1734815;82;21099;-67
2023/07/20 11:42:29;;;;;;;5.50;2.10;;;;;;;29.47;29.71;99469.75;1734777;83;21539;-69
2023/07/20 11:45:06;;;;;;;8.23;2.50;;;;;;;29.44;29.52;99468.21;1734720;83;21020;-67
2023/07/20 11:47:45;;;;;;;5.85;2.10;;;;;;;29.43;29.94;99462.30;1734917;83;21048;-66
2023/07/20 11:50:13;;;;;;;;;;;;;;;29.50;29.55;99467.66;1737422;83;21047;-65